sensor_id;sensor_type;location;lat;lon;timestamp;P1;durP1;ratioP1;P2;durP2;ratioP2
4468;SDS011;2247;42.666;23.292;2023-05-14T00:00:20;10.53;;;3.63;;
4468;SDS011;2247;42.666;23.292;2023-05-14T00:02:49;5.60;;;3.80;;
4468;SDS011;2247;42.666;23.292;2023-05-14T00:05:15;6.10;;;3.30;;
4468;SDS011;2247;42.666;23.292;2023-05-14T00:07:42;4.50;;;3.63;;
4468;SDS011;2247;42.666;23.292;2023-05-14T00:10:09;4.87;;;3.60;;
4468;SDS011;2247;42.666;23.292;2023-05-14T00:12:36;13.33;;;3.73;;
4468;SDS011;2247;42.666;23.292;2023-05-14T00:15:03;3.67;;;3.00;;
4468;SDS011;2247;42.666;23.292;2023-05-14T00:17:31;3.73;;;3.40;;
4468;SDS011;2247;42.666;23.292;2023-05-14T00:19:59;5.27;;;3.63;;
4468;SDS011;2247;42.666;23.292;2023-05-14T00:22:26;3.93;;;3.63;;
4468;SDS011;2247;42.666;23.292;2023-05-14T00:24:53;4.40;;;3.27;;
4468;SDS011;2247;42.666;23.292;2023-05-14T00:27:20;3.97;;;3.57;;
4468;SDS011;2247;42.666;23.292;2023-05-14T00:29:46;31.80;;;4.20;;
4468;SDS011;2247;42.666;23.292;2023-05-14T00:32:13;4.67;;;3.80;;
4468;SDS011;2247;42.666;23.292;2023-05-14T00:34:40;7.60;;;3.50;;
4468;SDS011;2247;42.666;23.292;2023-05-14T00:37:08;7.87;;;3.90;;
4468;SDS011;2247;42.666;23.292;2023-05-14T00:39:35;5.80;;;4.10;;
4468;SDS011;2247;42.666;23.292;2023-05-14T00:42:03;7.33;;;3.63;;
4468;SDS011;2247;42.666;23.292;2023-05-14T00:44:31;4.20;;;3.57;;
4468;SDS011;2247;42.666;23.292;2023-05-14T00:46:58;5.40;;;3.80;;
4468;SDS011;2247;42.666;23.292;2023-05-14T00:49:25;4.90;;;3.33;;
4468;SDS011;2247;42.666;23.292;2023-05-14T00:51:52;4.37;;;3.97;;
4468;SDS011;2247;42.666;23.292;2023-05-14T00:54:21;4.53;;;3.90;;
4468;SDS011;2247;42.666;23.292;2023-05-14T00:56:48;5.07;;;4.17;;
4468;SDS011;2247;42.666;23.292;2023-05-14T00:59:16;3.93;;;3.53;;
4468;SDS011;2247;42.666;23.292;2023-05-14T01:01:42;12.50;;;3.73;;
4468;SDS011;2247;42.666;23.292;2023-05-14T01:04:09;9.67;;;3.77;;
4468;SDS011;2247;42.666;23.292;2023-05-14T01:06:41;4.20;;;3.53;;
4468;SDS011;2247;42.666;23.292;2023-05-14T01:09:17;5.37;;;4.13;;
4468;SDS011;2247;42.666;23.292;2023-05-14T01:11:51;15.60;;;3.80;;
4468;SDS011;2247;42.666;23.292;2023-05-14T01:14:26;4.20;;;3.40;;
4468;SDS011;2247;42.666;23.292;2023-05-14T01:16:58;4.50;;;3.20;;
4468;SDS011;2247;42.666;23.292;2023-05-14T01:19:32;4.20;;;3.50;;
4468;SDS011;2247;42.666;23.292;2023-05-14T01:22:04;3.27;;;2.93;;
4468;SDS011;2247;42.666;23.292;2023-05-14T01:24:31;3.70;;;3.40;;
4468;SDS011;2247;42.666;23.292;2023-05-14T01:27:00;7.60;;;3.83;;
4468;SDS011;2247;42.666;23.292;2023-05-14T01:29:32;3.30;;;3.00;;
4468;SDS011;2247;42.666;23.292;2023-05-14T01:32:02;4.90;;;3.13;;
4468;SDS011;2247;42.666;23.292;2023-05-14T01:34:33;6.03;;;3.17;;
4468;SDS011;2247;42.666;23.292;2023-05-14T01:37:01;3.30;;;3.00;;
4468;SDS011;2247;42.666;23.292;2023-05-14T01:39:31;5.50;;;3.20;;
4468;SDS011;2247;42.666;23.292;2023-05-14T01:41:58;3.20;;;2.83;;
4468;SDS011;2247;42.666;23.292;2023-05-14T01:44:26;3.23;;;2.97;;
4468;SDS011;2247;42.666;23.292;2023-05-14T01:46:53;2.87;;;2.67;;
4468;SDS011;2247;42.666;23.292;2023-05-14T01:49:20;3.30;;;3.10;;
4468;SDS011;2247;42.666;23.292;2023-05-14T01:51:47;4.77;;;2.93;;
4468;SDS011;2247;42.666;23.292;2023-05-14T01:54:15;3.30;;;2.67;;
4468;SDS011;2247;42.666;23.292;2023-05-14T01:56:42;2.83;;;2.63;;
4468;SDS011;2247;42.666;23.292;2023-05-14T01:59:08;3.93;;;3.07;;
4468;SDS011;2247;42.666;23.292;2023-05-14T02:01:35;2.80;;;2.60;;
4468;SDS011;2247;42.666;23.292;2023-05-14T02:04:02;3.17;;;2.87;;
4468;SDS011;2247;42.666;23.292;2023-05-14T02:06:29;8.40;;;2.83;;
4468;SDS011;2247;42.666;23.292;2023-05-14T02:08:56;3.50;;;3.00;;
4468;SDS011;2247;42.666;23.292;2023-05-14T02:11:24;3.70;;;2.87;;
4468;SDS011;2247;42.666;23.292;2023-05-14T02:13:51;3.37;;;3.07;;
4468;SDS011;2247;42.666;23.292;2023-05-14T02:16:18;2.90;;;2.70;;
4468;SDS011;2247;42.666;23.292;2023-05-14T02:18:45;3.60;;;3.30;;
4468;SDS011;2247;42.666;23.292;2023-05-14T02:21:12;4.13;;;3.60;;
4468;SDS011;2247;42.666;23.292;2023-05-14T02:23:38;3.40;;;3.10;;
4468;SDS011;2247;42.666;23.292;2023-05-14T02:26:07;4.13;;;3.10;;
4468;SDS011;2247;42.666;23.292;2023-05-14T02:28:36;5.33;;;3.10;;
4468;SDS011;2247;42.666;23.292;2023-05-14T02:31:02;5.00;;;3.27;;
4468;SDS011;2247;42.666;23.292;2023-05-14T02:33:29;11.73;;;2.90;;
4468;SDS011;2247;42.666;23.292;2023-05-14T02:35:56;4.90;;;3.30;;
4468;SDS011;2247;42.666;23.292;2023-05-14T02:38:24;3.60;;;3.30;;
4468;SDS011;2247;42.666;23.292;2023-05-14T02:40:51;3.60;;;3.30;;
4468;SDS011;2247;42.666;23.292;2023-05-14T02:43:18;4.47;;;3.33;;
4468;SDS011;2247;42.666;23.292;2023-05-14T02:45:47;7.60;;;3.00;;
4468;SDS011;2247;42.666;23.292;2023-05-14T02:48:14;5.00;;;3.03;;
4468;SDS011;2247;42.666;23.292;2023-05-14T02:50:40;4.37;;;2.90;;
4468;SDS011;2247;42.666;23.292;2023-05-14T02:53:08;4.23;;;3.23;;
4468;SDS011;2247;42.666;23.292;2023-05-14T02:55:34;5.83;;;3.03;;
4468;SDS011;2247;42.666;23.292;2023-05-14T02:58:01;3.50;;;3.13;;
4468;SDS011;2247;42.666;23.292;2023-05-14T03:00:28;8.13;;;3.53;;
4468;SDS011;2247;42.666;23.292;2023-05-14T03:02:56;4.70;;;3.27;;
4468;SDS011;2247;42.666;23.292;2023-05-14T03:05:23;3.00;;;2.80;;
4468;SDS011;2247;42.666;23.292;2023-05-14T03:07:50;3.27;;;3.00;;
4468;SDS011;2247;42.666;23.292;2023-05-14T03:10:18;3.60;;;3.30;;
4468;SDS011;2247;42.666;23.292;2023-05-14T03:12:44;3.40;;;2.90;;
4468;SDS011;2247;42.666;23.292;2023-05-14T03:15:11;3.40;;;3.07;;
4468;SDS011;2247;42.666;23.292;2023-05-14T03:17:38;3.90;;;3.10;;
4468;SDS011;2247;42.666;23.292;2023-05-14T03:20:07;3.97;;;3.33;;
4468;SDS011;2247;42.666;23.292;2023-05-14T03:22:34;4.00;;;3.20;;
4468;SDS011;2247;42.666;23.292;2023-05-14T03:25:01;4.00;;;3.23;;
4468;SDS011;2247;42.666;23.292;2023-05-14T03:27:28;3.40;;;2.80;;
4468;SDS011;2247;42.666;23.292;2023-05-14T03:29:55;5.50;;;3.03;;
4468;SDS011;2247;42.666;23.292;2023-05-14T03:32:22;4.03;;;3.40;;
4468;SDS011;2247;42.666;23.292;2023-05-14T03:34:48;9.23;;;2.93;;
4468;SDS011;2247;42.666;23.292;2023-05-14T03:37:16;4.53;;;2.90;;
4468;SDS011;2247;42.666;23.292;2023-05-14T03:39:43;7.33;;;3.30;;
4468;SDS011;2247;42.666;23.292;2023-05-14T03:42:10;3.73;;;3.43;;
4468;SDS011;2247;42.666;23.292;2023-05-14T03:44:37;3.63;;;3.20;;
4468;SDS011;2247;42.666;23.292;2023-05-14T03:47:04;3.43;;;3.23;;
4468;SDS011;2247;42.666;23.292;2023-05-14T03:49:31;5.40;;;3.37;;
4468;SDS011;2247;42.666;23.292;2023-05-14T03:51:58;3.13;;;2.90;;
4468;SDS011;2247;42.666;23.292;2023-05-14T03:54:27;4.50;;;3.27;;
4468;SDS011;2247;42.666;23.292;2023-05-14T03:56:54;3.23;;;3.03;;
4468;SDS011;2247;42.666;23.292;2023-05-14T03:59:20;4.03;;;3.33;;
4468;SDS011;2247;42.666;23.292;2023-05-14T04:01:47;4.83;;;3.30;;
4468;SDS011;2247;42.666;23.292;2023-05-14T04:04:14;4.10;;;3.70;;
4468;SDS011;2247;42.666;23.292;2023-05-14T04:06:41;4.93;;;3.33;;
4468;SDS011;2247;42.666;23.292;2023-05-14T04:09:08;4.20;;;3.00;;
4468;SDS011;2247;42.666;23.292;2023-05-14T04:11:37;4.60;;;3.50;;
4468;SDS011;2247;42.666;23.292;2023-05-14T04:14:04;5.63;;;3.57;;
4468;SDS011;2247;42.666;23.292;2023-05-14T04:16:31;5.60;;;3.60;;
4468;SDS011;2247;42.666;23.292;2023-05-14T04:18:59;6.10;;;2.73;;
4468;SDS011;2247;42.666;23.292;2023-05-14T04:21:27;3.37;;;3.07;;
4468;SDS011;2247;42.666;23.292;2023-05-14T04:23:54;3.10;;;2.80;;
4468;SDS011;2247;42.666;23.292;2023-05-14T04:26:21;4.53;;;3.10;;
4468;SDS011;2247;42.666;23.292;2023-05-14T04:28:49;6.90;;;2.87;;
4468;SDS011;2247;42.666;23.292;2023-05-14T04:31:16;3.47;;;3.00;;
4468;SDS011;2247;42.666;23.292;2023-05-14T04:33:43;3.03;;;2.70;;
4468;SDS011;2247;42.666;23.292;2023-05-14T04:36:10;3.20;;;2.90;;
4468;SDS011;2247;42.666;23.292;2023-05-14T04:38:37;7.50;;;3.27;;
4468;SDS011;2247;42.666;23.292;2023-05-14T04:41:04;3.70;;;3.10;;
4468;SDS011;2247;42.666;23.292;2023-05-14T04:43:31;3.83;;;3.33;;
4468;SDS011;2247;42.666;23.292;2023-05-14T04:46:01;4.27;;;3.30;;
4468;SDS011;2247;42.666;23.292;2023-05-14T04:48:29;3.93;;;3.60;;
4468;SDS011;2247;42.666;23.292;2023-05-14T04:50:57;3.70;;;3.40;;
4468;SDS011;2247;42.666;23.292;2023-05-14T04:53:24;4.87;;;3.83;;
4468;SDS011;2247;42.666;23.292;2023-05-14T04:55:52;3.90;;;3.13;;
4468;SDS011;2247;42.666;23.292;2023-05-14T04:58:21;9.80;;;3.70;;
4468;SDS011;2247;42.666;23.292;2023-05-14T05:00:49;8.27;;;3.77;;
4468;SDS011;2247;42.666;23.292;2023-05-14T05:03:18;4.13;;;3.73;;
4468;SDS011;2247;42.666;23.292;2023-05-14T05:05:45;4.50;;;4.10;;
4468;SDS011;2247;42.666;23.292;2023-05-14T05:08:12;4.60;;;4.10;;
4468;SDS011;2247;42.666;23.292;2023-05-14T05:10:39;3.20;;;2.90;;
4468;SDS011;2247;42.666;23.292;2023-05-14T05:13:06;4.30;;;3.23;;
4468;SDS011;2247;42.666;23.292;2023-05-14T05:15:33;4.03;;;3.50;;
4468;SDS011;2247;42.666;23.292;2023-05-14T05:18:00;5.20;;;3.97;;
4468;SDS011;2247;42.666;23.292;2023-05-14T05:20:28;6.13;;;3.70;;
4468;SDS011;2247;42.666;23.292;2023-05-14T05:22:55;3.93;;;3.50;;
4468;SDS011;2247;42.666;23.292;2023-05-14T05:25:22;8.33;;;3.63;;
4468;SDS011;2247;42.666;23.292;2023-05-14T05:27:48;4.33;;;3.80;;
4468;SDS011;2247;42.666;23.292;2023-05-14T05:30:15;4.53;;;4.00;;
4468;SDS011;2247;42.666;23.292;2023-05-14T05:32:43;5.73;;;4.17;;
4468;SDS011;2247;42.666;23.292;2023-05-14T05:35:10;4.07;;;3.77;;
4468;SDS011;2247;42.666;23.292;2023-05-14T05:37:39;4.37;;;3.90;;
4468;SDS011;2247;42.666;23.292;2023-05-14T05:40:09;4.30;;;3.90;;
4468;SDS011;2247;42.666;23.292;2023-05-14T05:42:38;5.37;;;3.50;;
4468;SDS011;2247;42.666;23.292;2023-05-14T05:45:05;4.83;;;4.33;;
4468;SDS011;2247;42.666;23.292;2023-05-14T05:47:35;5.50;;;4.57;;
4468;SDS011;2247;42.666;23.292;2023-05-14T05:50:04;4.27;;;3.90;;
4468;SDS011;2247;42.666;23.292;2023-05-14T05:52:32;6.57;;;4.97;;
4468;SDS011;2247;42.666;23.292;2023-05-14T05:55:01;5.77;;;4.30;;
4468;SDS011;2247;42.666;23.292;2023-05-14T05:57:28;9.30;;;4.77;;
4468;SDS011;2247;42.666;23.292;2023-05-14T05:59:58;5.40;;;4.90;;
4468;SDS011;2247;42.666;23.292;2023-05-14T06:02:32;6.03;;;4.77;;
4468;SDS011;2247;42.666;23.292;2023-05-14T06:04:59;5.53;;;4.97;;
4468;SDS011;2247;42.666;23.292;2023-05-14T06:07:26;6.40;;;4.87;;
4468;SDS011;2247;42.666;23.292;2023-05-14T06:09:53;6.10;;;4.80;;
4468;SDS011;2247;42.666;23.292;2023-05-14T06:12:21;12.07;;;5.30;;
4468;SDS011;2247;42.666;23.292;2023-05-14T06:14:48;5.30;;;4.80;;
4468;SDS011;2247;42.666;23.292;2023-05-14T06:17:15;5.63;;;5.00;;
4468;SDS011;2247;42.666;23.292;2023-05-14T06:19:42;13.27;;;5.47;;
4468;SDS011;2247;42.666;23.292;2023-05-14T06:22:09;7.17;;;5.10;;
4468;SDS011;2247;42.666;23.292;2023-05-14T06:24:37;6.03;;;4.73;;
4468;SDS011;2247;42.666;23.292;2023-05-14T06:27:05;7.10;;;5.10;;
4468;SDS011;2247;42.666;23.292;2023-05-14T06:29:34;6.83;;;5.20;;
4468;SDS011;2247;42.666;23.292;2023-05-14T06:32:02;6.43;;;5.00;;
4468;SDS011;2247;42.666;23.292;2023-05-14T06:34:29;6.37;;;4.80;;
4468;SDS011;2247;42.666;23.292;2023-05-14T06:36:56;5.70;;;5.00;;
4468;SDS011;2247;42.666;23.292;2023-05-14T06:39:23;14.23;;;5.10;;
4468;SDS011;2247;42.666;23.292;2023-05-14T06:41:50;7.70;;;5.30;;
4468;SDS011;2247;42.666;23.292;2023-05-14T06:44:17;6.63;;;5.73;;
4468;SDS011;2247;42.666;23.292;2023-05-14T06:46:53;7.73;;;5.30;;
4468;SDS011;2247;42.666;23.292;2023-05-14T06:49:22;6.90;;;5.67;;
4468;SDS011;2247;42.666;23.292;2023-05-14T06:51:50;7.03;;;4.70;;
4468;SDS011;2247;42.666;23.292;2023-05-14T06:54:19;6.50;;;5.37;;
4468;SDS011;2247;42.666;23.292;2023-05-14T06:56:48;8.20;;;5.60;;
4468;SDS011;2247;42.666;23.292;2023-05-14T06:59:18;8.10;;;5.47;;
4468;SDS011;2247;42.666;23.292;2023-05-14T07:01:47;6.47;;;5.20;;
4468;SDS011;2247;42.666;23.292;2023-05-14T07:04:14;6.43;;;5.17;;
4468;SDS011;2247;42.666;23.292;2023-05-14T07:06:41;5.80;;;4.60;;
4468;SDS011;2247;42.666;23.292;2023-05-14T07:09:08;6.63;;;4.90;;
4468;SDS011;2247;42.666;23.292;2023-05-14T07:11:36;8.10;;;4.93;;
4468;SDS011;2247;42.666;23.292;2023-05-14T07:14:03;5.53;;;4.90;;
4468;SDS011;2247;42.666;23.292;2023-05-14T07:16:31;7.03;;;5.63;;
4468;SDS011;2247;42.666;23.292;2023-05-14T07:19:00;9.03;;;5.87;;
4468;SDS011;2247;42.666;23.292;2023-05-14T07:21:29;9.50;;;5.23;;
4468;SDS011;2247;42.666;23.292;2023-05-14T07:23:56;6.83;;;5.73;;
4468;SDS011;2247;42.666;23.292;2023-05-14T07:26:27;10.83;;;5.43;;
4468;SDS011;2247;42.666;23.292;2023-05-14T07:29:01;8.40;;;5.70;;
4468;SDS011;2247;42.666;23.292;2023-05-14T07:31:31;8.40;;;5.90;;
4468;SDS011;2247;42.666;23.292;2023-05-14T07:33:58;8.63;;;5.40;;
4468;SDS011;2247;42.666;23.292;2023-05-14T07:36:27;8.00;;;5.57;;
4468;SDS011;2247;42.666;23.292;2023-05-14T07:41:35;9.20;;;6.20;;
4468;SDS011;2247;42.666;23.292;2023-05-14T07:44:03;7.10;;;5.40;;
4468;SDS011;2247;42.666;23.292;2023-05-14T07:46:31;8.00;;;5.87;;
4468;SDS011;2247;42.666;23.292;2023-05-14T07:48:58;10.07;;;5.43;;
4468;SDS011;2247;42.666;23.292;2023-05-14T07:51:24;6.70;;;5.67;;
4468;SDS011;2247;42.666;23.292;2023-05-14T07:53:52;8.50;;;5.20;;
4468;SDS011;2247;42.666;23.292;2023-05-14T07:56:19;16.40;;;5.17;;
4468;SDS011;2247;42.666;23.292;2023-05-14T07:58:48;7.90;;;6.00;;
4468;SDS011;2247;42.666;23.292;2023-05-14T08:01:16;6.53;;;5.70;;
4468;SDS011;2247;42.666;23.292;2023-05-14T08:03:45;6.33;;;5.30;;
4468;SDS011;2247;42.666;23.292;2023-05-14T08:06:11;6.30;;;5.33;;
4468;SDS011;2247;42.666;23.292;2023-05-14T08:08:39;7.60;;;5.70;;
4468;SDS011;2247;42.666;23.292;2023-05-14T08:11:06;5.40;;;4.67;;
4468;SDS011;2247;42.666;23.292;2023-05-14T08:13:33;6.17;;;5.30;;
4468;SDS011;2247;42.666;23.292;2023-05-14T08:16:05;5.83;;;5.20;;
4468;SDS011;2247;42.666;23.292;2023-05-14T08:18:33;9.90;;;6.50;;
4468;SDS011;2247;42.666;23.292;2023-05-14T08:21:01;7.33;;;5.90;;
4468;SDS011;2247;42.666;23.292;2023-05-14T08:23:28;8.73;;;6.67;;
4468;SDS011;2247;42.666;23.292;2023-05-14T08:25:55;7.37;;;5.70;;
4468;SDS011;2247;42.666;23.292;2023-05-14T08:28:23;7.43;;;5.87;;
4468;SDS011;2247;42.666;23.292;2023-05-14T08:30:50;7.00;;;5.80;;
4468;SDS011;2247;42.666;23.292;2023-05-14T08:33:19;10.87;;;6.60;;
4468;SDS011;2247;42.666;23.292;2023-05-14T08:35:46;7.60;;;6.07;;
4468;SDS011;2247;42.666;23.292;2023-05-14T08:38:13;6.80;;;5.93;;
4468;SDS011;2247;42.666;23.292;2023-05-14T08:40:40;7.93;;;6.13;;
4468;SDS011;2247;42.666;23.292;2023-05-14T08:43:08;8.07;;;6.20;;
4468;SDS011;2247;42.666;23.292;2023-05-14T08:45:37;7.37;;;5.77;;
4468;SDS011;2247;42.666;23.292;2023-05-14T08:48:06;7.20;;;5.90;;
4468;SDS011;2247;42.666;23.292;2023-05-14T08:50:38;6.90;;;5.53;;
4468;SDS011;2247;42.666;23.292;2023-05-14T08:53:06;6.20;;;5.60;;
4468;SDS011;2247;42.666;23.292;2023-05-14T08:55:34;5.97;;;5.00;;
4468;SDS011;2247;42.666;23.292;2023-05-14T08:58:03;6.67;;;5.10;;
4468;SDS011;2247;42.666;23.292;2023-05-14T09:00:30;7.00;;;5.03;;
4468;SDS011;2247;42.666;23.292;2023-05-14T09:02:58;5.87;;;5.30;;
4468;SDS011;2247;42.666;23.292;2023-05-14T09:05:26;6.83;;;5.73;;
4468;SDS011;2247;42.666;23.292;2023-05-14T09:07:55;6.43;;;5.80;;
4468;SDS011;2247;42.666;23.292;2023-05-14T09:10:22;9.40;;;5.73;;
4468;SDS011;2247;42.666;23.292;2023-05-14T09:12:50;10.20;;;6.27;;
4468;SDS011;2247;42.666;23.292;2023-05-14T09:15:17;8.87;;;5.80;;
4468;SDS011;2247;42.666;23.292;2023-05-14T09:17:44;7.20;;;5.40;;
4468;SDS011;2247;42.666;23.292;2023-05-14T09:20:13;6.57;;;5.73;;
4468;SDS011;2247;42.666;23.292;2023-05-14T09:22:41;7.57;;;5.80;;
4468;SDS011;2247;42.666;23.292;2023-05-14T09:25:10;7.83;;;5.60;;
4468;SDS011;2247;42.666;23.292;2023-05-14T09:27:37;6.63;;;5.93;;
4468;SDS011;2247;42.666;23.292;2023-05-14T09:30:07;6.43;;;5.63;;
4468;SDS011;2247;42.666;23.292;2023-05-14T09:32:36;11.53;;;5.87;;
4468;SDS011;2247;42.666;23.292;2023-05-14T09:35:11;7.10;;;6.00;;
4468;SDS011;2247;42.666;23.292;2023-05-14T09:37:41;8.00;;;6.10;;
4468;SDS011;2247;42.666;23.292;2023-05-14T09:40:11;7.70;;;6.57;;
4468;SDS011;2247;42.666;23.292;2023-05-14T09:42:39;6.87;;;5.83;;
4468;SDS011;2247;42.666;23.292;2023-05-14T09:45:06;7.00;;;6.30;;
4468;SDS011;2247;42.666;23.292;2023-05-14T09:47:34;9.37;;;5.67;;
4468;SDS011;2247;42.666;23.292;2023-05-14T09:50:02;6.90;;;6.10;;
4468;SDS011;2247;42.666;23.292;2023-05-14T09:52:30;7.53;;;5.63;;
4468;SDS011;2247;42.666;23.292;2023-05-14T09:54:57;7.30;;;6.60;;
4468;SDS011;2247;42.666;23.292;2023-05-14T09:57:27;10.07;;;5.77;;
4468;SDS011;2247;42.666;23.292;2023-05-14T09:59:54;11.77;;;6.20;;
4468;SDS011;2247;42.666;23.292;2023-05-14T10:02:21;6.73;;;6.07;;
4468;SDS011;2247;42.666;23.292;2023-05-14T10:04:51;8.13;;;6.43;;
4468;SDS011;2247;42.666;23.292;2023-05-14T10:07:22;6.60;;;6.00;;
4468;SDS011;2247;42.666;23.292;2023-05-14T10:09:53;11.13;;;6.37;;
4468;SDS011;2247;42.666;23.292;2023-05-14T10:12:27;9.97;;;6.53;;
4468;SDS011;2247;42.666;23.292;2023-05-14T10:14:58;7.60;;;5.27;;
4468;SDS011;2247;42.666;23.292;2023-05-14T10:17:30;7.17;;;5.60;;
4468;SDS011;2247;42.666;23.292;2023-05-14T10:19:59;10.20;;;5.37;;
4468;SDS011;2247;42.666;23.292;2023-05-14T10:22:30;5.83;;;5.07;;
4468;SDS011;2247;42.666;23.292;2023-05-14T10:24:59;5.97;;;5.00;;
4468;SDS011;2247;42.666;23.292;2023-05-14T10:27:28;6.40;;;5.13;;
4468;SDS011;2247;42.666;23.292;2023-05-14T10:29:56;3.90;;;3.60;;
4468;SDS011;2247;42.666;23.292;2023-05-14T10:32:24;5.00;;;4.43;;
4468;SDS011;2247;42.666;23.292;2023-05-14T10:34:51;5.17;;;4.67;;
4468;SDS011;2247;42.666;23.292;2023-05-14T10:37:20;4.53;;;4.13;;
4468;SDS011;2247;42.666;23.292;2023-05-14T10:39:48;5.40;;;4.90;;
4468;SDS011;2247;42.666;23.292;2023-05-14T10:42:17;6.30;;;5.70;;
4468;SDS011;2247;42.666;23.292;2023-05-14T10:44:47;5.77;;;5.20;;
4468;SDS011;2247;42.666;23.292;2023-05-14T10:47:17;6.13;;;5.63;;
4468;SDS011;2247;42.666;23.292;2023-05-14T10:49:45;6.77;;;5.77;;
4468;SDS011;2247;42.666;23.292;2023-05-14T10:52:17;6.67;;;5.67;;
4468;SDS011;2247;42.666;23.292;2023-05-14T10:54:48;6.47;;;5.80;;
4468;SDS011;2247;42.666;23.292;2023-05-14T10:57:17;6.30;;;5.70;;
4468;SDS011;2247;42.666;23.292;2023-05-14T10:59:47;8.83;;;6.60;;
4468;SDS011;2247;42.666;23.292;2023-05-14T11:02:21;7.30;;;6.60;;
4468;SDS011;2247;42.666;23.292;2023-05-14T11:04:53;7.90;;;5.73;;
4468;SDS011;2247;42.666;23.292;2023-05-14T11:07:23;6.83;;;6.13;;
4468;SDS011;2247;42.666;23.292;2023-05-14T11:09:52;6.70;;;6.10;;
4468;SDS011;2247;42.666;23.292;2023-05-14T11:12:25;6.90;;;6.03;;
4468;SDS011;2247;42.666;23.292;2023-05-14T11:14:54;5.40;;;4.90;;
4468;SDS011;2247;42.666;23.292;2023-05-14T11:17:22;5.50;;;5.00;;
4468;SDS011;2247;42.666;23.292;2023-05-14T11:19:50;6.80;;;6.10;;
4468;SDS011;2247;42.666;23.292;2023-05-14T11:22:17;5.30;;;4.80;;
4468;SDS011;2247;42.666;23.292;2023-05-14T11:24:45;6.43;;;5.70;;
4468;SDS011;2247;42.666;23.292;2023-05-14T11:27:12;5.40;;;4.90;;
4468;SDS011;2247;42.666;23.292;2023-05-14T11:29:42;7.63;;;6.40;;
4468;SDS011;2247;42.666;23.292;2023-05-14T11:32:11;7.10;;;6.20;;
4468;SDS011;2247;42.666;23.292;2023-05-14T11:34:40;7.93;;;6.20;;
4468;SDS011;2247;42.666;23.292;2023-05-14T11:37:09;8.47;;;7.07;;
4468;SDS011;2247;42.666;23.292;2023-05-14T11:39:36;6.97;;;6.37;;
4468;SDS011;2247;42.666;23.292;2023-05-14T11:42:09;6.80;;;6.17;;
4468;SDS011;2247;42.666;23.292;2023-05-14T11:44:38;9.23;;;6.80;;
4468;SDS011;2247;42.666;23.292;2023-05-14T11:47:08;7.50;;;6.80;;
4468;SDS011;2247;42.666;23.292;2023-05-14T11:49:37;7.97;;;7.17;;
4468;SDS011;2247;42.666;23.292;2023-05-14T11:52:05;9.77;;;7.70;;
4468;SDS011;2247;42.666;23.292;2023-05-14T11:54:33;8.03;;;6.97;;
4468;SDS011;2247;42.666;23.292;2023-05-14T11:57:01;8.80;;;7.20;;
4468;SDS011;2247;42.666;23.292;2023-05-14T11:59:32;11.60;;;7.30;;
4468;SDS011;2247;42.666;23.292;2023-05-14T12:02:00;10.93;;;7.43;;
4468;SDS011;2247;42.666;23.292;2023-05-14T12:04:27;9.40;;;6.90;;
4468;SDS011;2247;42.666;23.292;2023-05-14T12:06:57;8.60;;;7.67;;
4468;SDS011;2247;42.666;23.292;2023-05-14T12:09:25;8.63;;;7.70;;
4468;SDS011;2247;42.666;23.292;2023-05-14T12:11:52;9.57;;;8.00;;
4468;SDS011;2247;42.666;23.292;2023-05-14T12:14:19;10.90;;;7.97;;
4468;SDS011;2247;42.666;23.292;2023-05-14T12:16:48;8.80;;;7.20;;
4468;SDS011;2247;42.666;23.292;2023-05-14T12:19:16;8.60;;;7.70;;
4468;SDS011;2247;42.666;23.292;2023-05-14T12:21:44;9.37;;;7.70;;
4468;SDS011;2247;42.666;23.292;2023-05-14T12:24:16;9.63;;;8.50;;
4468;SDS011;2247;42.666;23.292;2023-05-14T12:26:45;9.30;;;8.07;;
4468;SDS011;2247;42.666;23.292;2023-05-14T12:29:13;8.40;;;7.60;;
4468;SDS011;2247;42.666;23.292;2023-05-14T12:31:45;11.73;;;7.60;;
4468;SDS011;2247;42.666;23.292;2023-05-14T12:34:14;9.00;;;7.03;;
4468;SDS011;2247;42.666;23.292;2023-05-14T12:36:41;8.00;;;7.17;;
4468;SDS011;2247;42.666;23.292;2023-05-14T12:39:08;8.03;;;7.23;;
4468;SDS011;2247;42.666;23.292;2023-05-14T12:41:37;8.80;;;7.90;;
4468;SDS011;2247;42.666;23.292;2023-05-14T12:44:04;7.40;;;6.70;;
4468;SDS011;2247;42.666;23.292;2023-05-14T12:46:33;6.57;;;5.97;;
4468;SDS011;2247;42.666;23.292;2023-05-14T12:48:59;7.70;;;6.83;;
4468;SDS011;2247;42.666;23.292;2023-05-14T12:51:26;8.13;;;6.30;;
4468;SDS011;2247;42.666;23.292;2023-05-14T12:53:54;6.90;;;6.20;;
4468;SDS011;2247;42.666;23.292;2023-05-14T12:56:21;6.57;;;6.00;;
4468;SDS011;2247;42.666;23.292;2023-05-14T12:58:54;7.60;;;6.90;;
4468;SDS011;2247;42.666;23.292;2023-05-14T13:01:21;7.60;;;6.80;;
4468;SDS011;2247;42.666;23.292;2023-05-14T13:03:49;8.90;;;6.73;;
4468;SDS011;2247;42.666;23.292;2023-05-14T13:06:16;7.27;;;6.57;;
4468;SDS011;2247;42.666;23.292;2023-05-14T13:08:42;7.93;;;7.13;;
4468;SDS011;2247;42.666;23.292;2023-05-14T13:11:10;7.53;;;6.73;;
4468;SDS011;2247;42.666;23.292;2023-05-14T13:13:37;8.60;;;7.03;;
4468;SDS011;2247;42.666;23.292;2023-05-14T13:16:08;8.47;;;7.07;;
4468;SDS011;2247;42.666;23.292;2023-05-14T13:18:35;7.20;;;6.50;;
4468;SDS011;2247;42.666;23.292;2023-05-14T13:21:02;8.20;;;7.40;;
4468;SDS011;2247;42.666;23.292;2023-05-14T13:23:30;9.40;;;7.90;;
4468;SDS011;2247;42.666;23.292;2023-05-14T13:25:57;9.00;;;7.03;;
4468;SDS011;2247;42.666;23.292;2023-05-14T13:28:23;8.40;;;7.53;;
4468;SDS011;2247;42.666;23.292;2023-05-14T13:31:03;8.20;;;7.40;;
4468;SDS011;2247;42.666;23.292;2023-05-14T13:33:33;9.37;;;7.60;;
4468;SDS011;2247;42.666;23.292;2023-05-14T13:36:01;11.40;;;7.50;;
4468;SDS011;2247;42.666;23.292;2023-05-14T13:38:28;11.17;;;7.70;;
4468;SDS011;2247;42.666;23.292;2023-05-14T13:40:56;9.07;;;7.47;;
4468;SDS011;2247;42.666;23.292;2023-05-14T13:43:26;9.60;;;7.20;;
4468;SDS011;2247;42.666;23.292;2023-05-14T13:45:53;9.63;;;7.67;;
4468;SDS011;2247;42.666;23.292;2023-05-14T13:48:22;8.37;;;7.30;;
4468;SDS011;2247;42.666;23.292;2023-05-14T13:50:49;10.03;;;8.27;;
4468;SDS011;2247;42.666;23.292;2023-05-14T13:53:17;9.27;;;7.97;;
4468;SDS011;2247;42.666;23.292;2023-05-14T13:55:45;9.47;;;8.30;;
4468;SDS011;2247;42.666;23.292;2023-05-14T13:58:12;10.17;;;8.70;;
4468;SDS011;2247;42.666;23.292;2023-05-14T14:00:39;9.07;;;7.40;;
4468;SDS011;2247;42.666;23.292;2023-05-14T14:03:07;11.80;;;8.60;;
4468;SDS011;2247;42.666;23.292;2023-05-14T14:05:35;10.50;;;8.70;;
4468;SDS011;2247;42.666;23.292;2023-05-14T14:08:02;11.00;;;9.00;;
4468;SDS011;2247;42.666;23.292;2023-05-14T14:10:29;10.03;;;8.43;;
4468;SDS011;2247;42.666;23.292;2023-05-14T14:12:56;13.43;;;9.10;;
4468;SDS011;2247;42.666;23.292;2023-05-14T14:15:23;10.70;;;9.27;;
4468;SDS011;2247;42.666;23.292;2023-05-14T14:17:51;11.87;;;9.00;;
4468;SDS011;2247;42.666;23.292;2023-05-14T14:20:19;10.73;;;9.47;;
4468;SDS011;2247;42.666;23.292;2023-05-14T14:22:48;13.03;;;10.63;;
4468;SDS011;2247;42.666;23.292;2023-05-14T14:25:15;14.13;;;9.67;;
4468;SDS011;2247;42.666;23.292;2023-05-14T14:27:42;19.97;;;9.37;;
4468;SDS011;2247;42.666;23.292;2023-05-14T14:30:10;13.00;;;10.00;;
4468;SDS011;2247;42.666;23.292;2023-05-14T14:32:40;11.30;;;9.43;;
4468;SDS011;2247;42.666;23.292;2023-05-14T14:35:08;16.73;;;10.70;;
4468;SDS011;2247;42.666;23.292;2023-05-14T14:37:36;12.70;;;9.83;;
4468;SDS011;2247;42.666;23.292;2023-05-14T14:40:05;13.17;;;9.70;;
4468;SDS011;2247;42.666;23.292;2023-05-14T14:42:34;9.97;;;8.37;;
4468;SDS011;2247;42.666;23.292;2023-05-14T14:45:02;11.20;;;9.73;;
4468;SDS011;2247;42.666;23.292;2023-05-14T14:47:30;13.73;;;9.20;;
4468;SDS011;2247;42.666;23.292;2023-05-14T14:49:57;11.17;;;9.03;;
4468;SDS011;2247;42.666;23.292;2023-05-14T14:52:24;17.53;;;9.97;;
4468;SDS011;2247;42.666;23.292;2023-05-14T14:54:52;12.90;;;10.20;;
4468;SDS011;2247;42.666;23.292;2023-05-14T14:57:21;13.37;;;10.03;;
4468;SDS011;2247;42.666;23.292;2023-05-14T14:59:48;15.67;;;11.10;;
4468;SDS011;2247;42.666;23.292;2023-05-14T15:02:15;11.43;;;9.90;;
4468;SDS011;2247;42.666;23.292;2023-05-14T15:04:42;14.00;;;10.47;;
4468;SDS011;2247;42.666;23.292;2023-05-14T15:07:09;13.13;;;11.03;;